sensor_id;sensor_type;location;lat;lon;timestamp;pressure;altitude;pressure_sealevel;temperature;humidity
56894;BME280;43392;50.078;13.704;2023-02-22T00:00:22;97024.13;;;8.39;79.51
56894;BME280;43392;50.078;13.704;2023-02-22T00:02:54;97016.38;;;8.38;79.51
56894;BME280;43392;50.078;13.704;2023-02-22T00:05:26;97011.53;;;8.35;79.75
56894;BME280;43392;50.078;13.704;2023-02-22T00:07:56;97014.72;;;8.32;79.86
56894;BME280;43392;50.078;13.704;2023-02-22T00:10:25;97020.56;;;8.29;80.10
56894;BME280;43392;50.078;13.704;2023-02-22T00:12:54;97013.66;;;8.28;80.07
56894;BME280;43392;50.078;13.704;2023-02-22T00:15:22;97017.91;;;8.29;80.23
56894;BME280;43392;50.078;13.704;2023-02-22T00:17:51;97016.56;;;8.26;80.30
56894;BME280;43392;50.078;13.704;2023-02-22T00:20:18;97012.25;;;8.25;80.20
56894;BME280;43392;50.078;13.704;2023-02-22T00:22:46;97015.19;;;8.24;80.51
56894;BME280;43392;50.078;13.704;2023-02-22T00:25:16;97021.31;;;8.24;80.48
56894;BME280;43392;50.078;13.704;2023-02-22T00:27:43;97020.28;;;8.25;80.31
56894;BME280;43392;50.078;13.704;2023-02-22T00:30:13;97005.63;;;8.28;80.09
56894;BME280;43392;50.078;13.704;2023-02-22T00:32:43;97010.69;;;8.29;80.38
56894;BME280;43392;50.078;13.704;2023-02-22T00:35:10;97005.91;;;8.31;79.99
56894;BME280;43392;50.078;13.704;2023-02-22T00:37:37;97011.00;;;8.33;79.70
56894;BME280;43392;50.078;13.704;2023-02-22T00:40:08;97017.41;;;8.32;79.88
56894;BME280;43392;50.078;13.704;2023-02-22T00:42:35;97006.72;;;8.32;79.69
56894;BME280;43392;50.078;13.704;2023-02-22T00:45:02;97008.34;;;8.33;79.89
56894;BME280;43392;50.078;13.704;2023-02-22T00:47:28;97011.00;;;8.33;79.66
56894;BME280;43392;50.078;13.704;2023-02-22T00:49:55;97011.00;;;8.33;80.00
56894;BME280;43392;50.078;13.704;2023-02-22T00:52:22;97010.44;;;8.31;80.21
56894;BME280;43392;50.078;13.704;2023-02-22T00:54:48;97012.56;;;8.29;80.35
56894;BME280;43392;50.078;13.704;2023-02-22T00:57:16;97010.97;;;8.28;80.51
56894;BME280;43392;50.078;13.704;2023-02-22T00:59:43;97009.59;;;8.25;80.37
56894;BME280;43392;50.078;13.704;2023-02-22T01:02:11;97012.50;;;8.24;80.56
56894;BME280;43392;50.078;13.704;2023-02-22T01:04:37;97008.78;;;8.25;80.37
56894;BME280;43392;50.078;13.704;2023-02-22T01:07:04;97015.75;;;8.26;80.50
56894;BME280;43392;50.078;13.704;2023-02-22T01:09:31;97012.25;;;8.25;80.48
56894;BME280;43392;50.078;13.704;2023-02-22T01:11:59;97008.78;;;8.25;80.53
56894;BME280;43392;50.078;13.704;2023-02-22T01:14:28;97008.75;;;8.20;80.45
56894;BME280;43392;50.078;13.704;2023-02-22T01:16:55;97003.13;;;8.16;80.71
56894;BME280;43392;50.078;13.704;2023-02-22T01:19:22;97005.00;;;8.16;80.93
56894;BME280;43392;50.078;13.704;2023-02-22T01:21:49;96999.66;;;8.16;81.11
56894;BME280;43392;50.078;13.704;2023-02-22T01:24:16;96994.03;;;8.17;80.92
56894;BME280;43392;50.078;13.704;2023-02-22T01:26:48;96994.31;;;8.16;81.08
56894;BME280;43392;50.078;13.704;2023-02-22T01:29:16;96995.91;;;8.17;80.89
56894;BME280;43392;50.078;13.704;2023-02-22T01:31:50;97000.47;;;8.16;80.92
56894;BME280;43392;50.078;13.704;2023-02-22T01:34:19;96999.38;;;8.17;81.25
56894;BME280;43392;50.078;13.704;2023-02-22T01:36:45;96996.22;;;8.20;80.76
56894;BME280;43392;50.078;13.704;2023-02-22T01:39:12;96995.13;;;8.21;80.74
56894;BME280;43392;50.078;13.704;2023-02-22T01:41:38;96997.00;;;8.21;80.66
56894;BME280;43392;50.078;13.704;2023-02-22T01:44:20;96993.25;;;8.22;80.71
56894;BME280;43392;50.078;13.704;2023-02-22T01:46:48;96997.00;;;8.21;80.85
56894;BME280;43392;50.078;13.704;2023-02-22T01:49:15;96996.22;;;8.20;80.72
56894;BME280;43392;50.078;13.704;2023-02-22T01:51:44;96992.44;;;8.21;80.79
56894;BME280;43392;50.078;13.704;2023-02-22T01:54:14;96987.91;;;8.22;80.71
56894;BME280;43392;50.078;13.704;2023-02-22T01:56:45;96981.00;;;8.21;80.67
56894;BME280;43392;50.078;13.704;2023-02-22T01:59:15;96987.91;;;8.22;80.74
56894;BME280;43392;50.078;13.704;2023-02-22T02:01:43;96975.38;;;8.22;80.80
56894;BME280;43392;50.078;13.704;2023-02-22T02:04:15;96977.78;;;8.24;80.77
56894;BME280;43392;50.078;13.704;2023-02-22T02:06:42;96975.91;;;8.24;80.39
56894;BME280;43392;50.078;13.704;2023-02-22T02:09:14;96980.44;;;8.24;80.38
56894;BME280;43392;50.078;13.704;2023-02-22T02:11:44;96976.72;;;8.25;80.25
56894;BME280;43392;50.078;13.704;2023-02-22T02:14:11;96969.75;;;8.24;80.28
56894;BME280;43392;50.078;13.704;2023-02-22T02:16:40;96976.72;;;8.25;80.16
56894;BME280;43392;50.078;13.704;2023-02-22T02:19:14;96969.53;;;8.25;80.47
56894;BME280;43392;50.078;13.704;2023-02-22T02:25:07;96961.72;;;8.19;80.43
56894;BME280;43392;50.078;13.704;2023-02-22T02:27:52;96959.31;;;8.17;80.68
56894;BME280;43392;50.078;13.704;2023-02-22T02:33:24;96957.19;;;8.19;80.42
56894;BME280;43392;50.078;13.704;2023-02-22T02:36:00;96958.81;;;8.20;80.36
56894;BME280;43392;50.078;13.704;2023-02-22T02:38:31;96949.97;;;8.15;80.69
56894;BME280;43392;50.078;13.704;2023-02-22T02:41:06;96942.47;;;8.12;80.97
56894;BME280;43392;50.078;13.704;2023-02-22T02:43:39;96944.88;;;8.08;80.87
56894;BME280;43392;50.078;13.704;2023-02-22T02:46:11;96938.97;;;8.06;81.02
56894;BME280;43392;50.078;13.704;2023-02-22T02:48:46;96944.28;;;8.01;81.20
56894;BME280;43392;50.078;13.704;2023-02-22T02:51:16;96946.13;;;7.95;81.67
56894;BME280;43392;50.078;13.704;2023-02-22T02:53:45;96941.84;;;7.94;81.79
56894;BME280;43392;50.078;13.704;2023-02-22T02:56:13;96946.91;;;7.91;81.99
56894;BME280;43392;50.078;13.704;2023-02-22T02:58:47;96937.00;;;7.86;82.30
56894;BME280;43392;50.078;13.704;2023-02-22T03:01:21;96935.13;;;7.82;82.67
56894;BME280;43392;50.078;13.704;2023-02-22T03:04:05;96932.66;;;7.75;82.49
56894;BME280;43392;50.078;13.704;2023-02-22T03:07:03;96934.78;;;7.73;83.10
56894;BME280;43392;50.078;13.704;2023-02-22T03:09:54;96922.50;;;7.72;83.02
56894;BME280;43392;50.078;13.704;2023-02-22T03:12:34;96922.25;;;7.74;83.12
56894;BME280;43392;50.078;13.704;2023-02-22T03:15:13;96927.56;;;7.74;83.29
56894;BME280;43392;50.078;13.704;2023-02-22T03:17:51;96921.97;;;7.75;83.25
56894;BME280;43392;50.078;13.704;2023-02-22T03:20:26;96925.44;;;7.76;83.04
56894;BME280;43392;50.078;13.704;2023-02-22T03:22:59;96913.72;;;7.77;83.03
56894;BME280;43392;50.078;13.704;2023-02-22T03:25:32;96928.41;;;7.79;83.04
56894;BME280;43392;50.078;13.704;2023-02-22T03:28:03;96924.44;;;7.82;83.01
56894;BME280;43392;50.078;13.704;2023-02-22T03:30:35;96925.47;;;7.81;82.71
56894;BME280;43392;50.078;13.704;2023-02-22T03:33:06;96921.22;;;7.80;82.69
56894;BME280;43392;50.078;13.704;2023-02-22T03:35:39;96928.97;;;7.81;82.98
56894;BME280;43392;50.078;13.704;2023-02-22T03:38:10;96930.56;;;7.82;83.00
56894;BME280;43392;50.078;13.704;2023-02-22T03:40:42;96929.78;;;7.82;82.69
56894;BME280;43392;50.078;13.704;2023-02-22T03:43:13;96926.28;;;7.81;82.70
56894;BME280;43392;50.078;13.704;2023-02-22T03:45:41;96920.69;;;7.83;82.84
56894;BME280;43392;50.078;13.704;2023-02-22T03:48:14;96929.50;;;7.83;82.84
56894;BME280;43392;50.078;13.704;2023-02-22T03:50:45;96926.84;;;7.83;82.88
56894;BME280;43392;50.078;13.704;2023-02-22T03:53:14;96933.75;;;7.79;82.48
56894;BME280;43392;50.078;13.704;2023-02-22T03:55:43;96931.88;;;7.75;83.02
56894;BME280;43392;50.078;13.704;2023-02-22T03:58:11;96925.97;;;7.73;83.19
56894;BME280;43392;50.078;13.704;2023-02-22T04:00:39;96928.09;;;7.71;83.14
56894;BME280;43392;50.078;13.704;2023-02-22T04:03:08;96929.41;;;7.68;83.08
56894;BME280;43392;50.078;13.704;2023-02-22T04:05:35;96927.81;;;7.67;83.45
56894;BME280;43392;50.078;13.704;2023-02-22T04:08:04;96923.53;;;7.66;83.73
56894;BME280;43392;50.078;13.704;2023-02-22T04:10:31;96926.19;;;7.66;83.30
56894;BME280;43392;50.078;13.704;2023-02-22T04:12:58;96921.63;;;7.62;83.41
56894;BME280;43392;50.078;13.704;2023-02-22T04:15:25;96920.56;;;7.58;83.75
56894;BME280;43392;50.078;13.704;2023-02-22T04:17:52;96915.44;;;7.56;83.83
56894;BME280;43392;50.078;13.704;2023-02-22T04:20:19;96922.91;;;7.54;84.09
56894;BME280;43392;50.078;13.704;2023-02-22T04:22:49;96929.06;;;7.55;84.12
56894;BME280;43392;50.078;13.704;2023-02-22T04:25:17;96927.97;;;7.56;84.06
56894;BME280;43392;50.078;13.704;2023-02-22T04:27:44;96919.44;;;7.54;84.29
56894;BME280;43392;50.078;13.704;2023-02-22T04:30:11;96914.59;;;7.46;84.28
56894;BME280;43392;50.078;13.704;2023-02-22T04:32:37;96921.78;;;7.45;84.56
56894;BME280;43392;50.078;13.704;2023-02-22T04:35:05;96923.66;;;7.45;84.62
56894;BME280;43392;50.078;13.704;2023-02-22T04:37:32;96920.97;;;7.45;84.68
56894;BME280;43392;50.078;13.704;2023-02-22T04:39:59;96919.34;;;7.44;84.32
56894;BME280;43392;50.078;13.704;2023-02-22T04:42:27;96914.28;;;7.42;84.93
56894;BME280;43392;50.078;13.704;2023-02-22T04:44:54;96915.38;;;7.41;84.52
56894;BME280;43392;50.078;13.704;2023-02-22T04:47:20;96915.09;;;7.43;84.82
56894;BME280;43392;50.078;13.704;2023-02-22T04:49:47;96918.31;;;7.45;84.86
56894;BME280;43392;50.078;13.704;2023-02-22T04:52:13;96910.31;;;7.45;84.64
56894;BME280;43392;50.078;13.704;2023-02-22T04:54:40;96909.25;;;7.46;84.73
56894;BME280;43392;50.078;13.704;2023-02-22T04:57:07;96902.84;;;7.47;84.66
56894;BME280;43392;50.078;13.704;2023-02-22T04:59:35;96902.03;;;7.46;84.50
56894;BME280;43392;50.078;13.704;2023-02-22T05:02:01;96902.31;;;7.45;84.82
56894;BME280;43392;50.078;13.704;2023-02-22T05:04:28;96903.13;;;7.45;84.96
56894;BME280;43392;50.078;13.704;2023-02-22T05:06:55;96900.19;;;7.47;84.87
56894;BME280;43392;50.078;13.704;2023-02-22T05:09:21;96897.28;;;7.48;84.79
56894;BME280;43392;50.078;13.704;2023-02-22T05:11:48;96900.47;;;7.50;84.93
56894;BME280;43392;50.078;13.704;2023-02-22T05:14:14;96898.88;;;7.49;84.92
56894;BME280;43392;50.078;13.704;2023-02-22T05:16:42;96895.97;;;7.51;84.96
56894;BME280;43392;50.078;13.704;2023-02-22T05:19:09;96897.53;;;7.52;84.76
56894;BME280;43392;50.078;13.704;2023-02-22T05:21:35;96893.84;;;7.53;84.90
56894;BME280;43392;50.078;13.704;2023-02-22T05:24:02;96890.91;;;7.54;84.43
56894;BME280;43392;50.078;13.704;2023-02-22T05:26:29;96887.94;;;7.51;84.61
56894;BME280;43392;50.078;13.704;2023-02-22T05:28:55;96887.16;;;7.50;84.91
56894;BME280;43392;50.078;13.704;2023-02-22T05:31:22;96890.63;;;7.51;84.63
56894;BME280;43392;50.078;13.704;2023-02-22T05:33:50;96893.53;;;7.49;84.65
56894;BME280;43392;50.078;13.704;2023-02-22T05:36:17;96890.81;;;7.44;84.50
56894;BME280;43392;50.078;13.704;2023-02-22T05:38:43;96889.22;;;7.43;84.83
56894;BME280;43392;50.078;13.704;2023-02-22T05:41:11;96889.22;;;7.43;84.93
56894;BME280;43392;50.078;13.704;2023-02-22T05:43:38;96884.41;;;7.40;84.94
56894;BME280;43392;50.078;13.704;2023-02-22T05:46:05;96881.19;;;7.38;85.08
56894;BME280;43392;50.078;13.704;2023-02-22T05:48:32;96889.75;;;7.40;85.27
56894;BME280;43392;50.078;13.704;2023-02-22T05:51:00;96881.47;;;7.42;85.23
56894;BME280;43392;50.078;13.704;2023-02-22T05:53:28;96884.94;;;7.42;84.96
56894;BME280;43392;50.078;13.704;2023-02-22T05:55:55;96890.81;;;7.44;84.91
56894;BME280;43392;50.078;13.704;2023-02-22T05:58:21;96891.63;;;7.45;85.10
56894;BME280;43392;50.078;13.704;2023-02-22T06:00:48;96881.78;;;7.45;85.05
56894;BME280;43392;50.078;13.704;2023-02-22T06:03:15;96890.84;;;7.49;85.02
56894;BME280;43392;50.078;13.704;2023-02-22T06:05:41;96891.97;;;7.53;84.61
56894;BME280;43392;50.078;13.704;2023-02-22T06:08:09;96881.84;;;7.55;84.21
56894;BME280;43392;50.078;13.704;2023-02-22T06:10:36;96893.06;;;7.57;84.15
56894;BME280;43392;50.078;13.704;2023-02-22T06:13:04;96887.97;;;7.56;84.27
56894;BME280;43392;50.078;13.704;2023-02-22T06:15:31;96885.81;;;7.53;84.13
56894;BME280;43392;50.078;13.704;2023-02-22T06:17:58;96893.03;;;7.52;84.21
56894;BME280;43392;50.078;13.704;2023-02-22T06:20:26;96886.59;;;7.48;84.52
56894;BME280;43392;50.078;13.704;2023-02-22T06:22:54;96888.44;;;7.43;84.58
56894;BME280;43392;50.078;13.704;2023-02-22T06:25:25;96898.00;;;7.44;84.80
56894;BME280;43392;50.078;13.704;2023-02-22T06:27:52;96896.19;;;7.49;84.66
56894;BME280;43392;50.078;13.704;2023-02-22T06:30:20;96894.34;;;7.50;84.33
56894;BME280;43392;50.078;13.704;2023-02-22T06:32:47;96899.38;;;7.46;84.51
56894;BME280;43392;50.078;13.704;2023-02-22T06:35:15;96894.81;;;7.42;84.74
56894;BME280;43392;50.078;13.704;2023-02-22T06:37:42;96900.44;;;7.45;84.68
56894;BME280;43392;50.078;13.704;2023-02-22T06:40:09;96901.50;;;7.44;84.59
56894;BME280;43392;50.078;13.704;2023-02-22T06:42:38;96894.25;;;7.40;84.88
56894;BME280;43392;50.078;13.704;2023-02-22T06:45:05;96907.63;;;7.45;84.56
56894;BME280;43392;50.078;13.704;2023-02-22T06:47:32;96901.25;;;7.46;84.73
56894;BME280;43392;50.078;13.704;2023-02-22T06:49:59;96909.53;;;7.49;84.78
56894;BME280;43392;50.078;13.704;2023-02-22T06:52:26;96912.25;;;7.54;85.03
56894;BME280;43392;50.078;13.704;2023-02-22T06:54:52;96913.31;;;7.58;84.90
56894;BME280;43392;50.078;13.704;2023-02-22T06:57:19;96909.63;;;7.64;84.99
56894;BME280;43392;50.078;13.704;2023-02-22T06:59:47;96914.19;;;7.69;85.18
56894;BME280;43392;50.078;13.704;2023-02-22T07:02:13;96910.75;;;7.73;84.89
56894;BME280;43392;50.078;13.704;2023-02-22T07:04:40;96916.94;;;7.79;84.43
56894;BME280;43392;50.078;13.704;2023-02-22T07:07:07;96922.53;;;7.82;84.66
56894;BME280;43392;50.078;13.704;2023-02-22T07:09:33;96913.78;;;7.87;84.47
56894;BME280;43392;50.078;13.704;2023-02-22T07:12:00;96923.94;;;7.90;84.81
56894;BME280;43392;50.078;13.704;2023-02-22T07:14:26;96919.94;;;7.92;84.57
56894;BME280;43392;50.078;13.704;2023-02-22T07:16:54;96923.16;;;7.94;84.58
56894;BME280;43392;50.078;13.704;2023-02-22T07:19:21;96929.84;;;7.97;84.23
56894;BME280;43392;50.078;13.704;2023-02-22T07:21:49;96923.97;;;8.00;84.01
56894;BME280;43392;50.078;13.704;2023-02-22T07:24:19;96925.34;;;8.08;83.78
56894;BME280;43392;50.078;13.704;2023-02-22T07:26:46;96920.06;;;8.18;83.51
56894;BME280;43392;50.078;13.704;2023-02-22T07:29:12;96917.47;;;8.28;82.89
56894;BME280;43392;50.078;13.704;2023-02-22T07:31:39;96917.50;;;8.33;83.64
56894;BME280;43392;50.078;13.704;2023-02-22T07:34:07;96915.88;;;8.32;83.35
56894;BME280;43392;50.078;13.704;2023-02-22T07:36:33;96917.19;;;8.29;83.31
56894;BME280;43392;50.078;13.704;2023-02-22T07:39:00;96914.47;;;8.24;83.51
56894;BME280;43392;50.078;13.704;2023-02-22T07:41:26;96920.91;;;8.23;84.05
56894;BME280;43392;50.078;13.704;2023-02-22T07:43:53;96917.97;;;8.25;83.88
56894;BME280;43392;50.078;13.704;2023-02-22T07:46:20;96914.47;;;8.24;83.88
56894;BME280;43392;50.078;13.704;2023-02-22T07:48:46;96920.16;;;8.28;84.11
56894;BME280;43392;50.078;13.704;2023-02-22T07:51:15;96911.06;;;8.29;83.93
56894;BME280;43392;50.078;13.704;2023-02-22T07:53:42;96911.34;;;8.32;84.17
56894;BME280;43392;50.078;13.704;2023-02-22T07:56:08;96920.16;;;8.33;84.08
56894;BME280;43392;50.078;13.704;2023-02-22T07:58:35;96915.88;;;8.32;83.84
56894;BME280;43392;50.078;13.704;2023-02-22T08:01:02;96911.59;;;8.31;83.86
56894;BME280;43392;50.078;13.704;2023-02-22T08:03:30;96913.50;;;8.35;83.49
56894;BME280;43392;50.078;13.704;2023-02-22T08:05:58;96916.19;;;8.40;83.28
56894;BME280;43392;50.078;13.704;2023-02-22T08:08:28;96923.41;;;8.45;82.97
56894;BME280;43392;50.078;13.704;2023-02-22T08:10:55;96919.94;;;8.49;83.23
56894;BME280;43392;50.078;13.704;2023-02-22T08:13:22;96920.75;;;8.50;83.49
56894;BME280;43392;50.078;13.704;2023-02-22T08:15:50;96911.94;;;8.49;83.62
56894;BME280;43392;50.078;13.704;2023-02-22T08:18:18;96921.31;;;8.57;83.42
56894;BME280;43392;50.078;13.704;2023-02-22T08:20:47;96917.56;;;8.58;83.05
56894;BME280;43392;50.078;13.704;2023-02-22T08:23:15;96919.19;;;8.59;83.03
56894;BME280;43392;50.078;13.704;2023-02-22T08:25:44;96918.91;;;8.60;83.18
56894;BME280;43392;50.078;13.704;2023-02-22T08:28:13;96920.25;;;8.63;82.63
56894;BME280;43392;50.078;13.704;2023-02-22T08:30:40;96917.31;;;8.64;82.78
56894;BME280;43392;50.078;13.704;2023-02-22T08:33:08;96918.41;;;8.68;82.74
56894;BME280;43392;50.078;13.704;2023-02-22T08:35:35;96921.91;;;8.74;82.80
56894;BME280;43392;50.078;13.704;2023-02-22T08:38:03;96921.09;;;8.79;82.83
56894;BME280;43392;50.078;13.704;2023-02-22T08:40:32;96916.53;;;8.84;83.04
56894;BME280;43392;50.078;13.704;2023-02-22T08:43:00;96909.34;;;8.90;82.96
56894;BME280;43392;50.078;13.704;2023-02-22T08:45:27;96920.31;;;8.93;82.69
56894;BME280;43392;50.078;13.704;2023-02-22T08:47:53;96912.56;;;8.97;82.82
56894;BME280;43392;50.078;13.704;2023-02-22T08:50:22;96917.09;;;9.01;82.54
56894;BME280;43392;50.078;13.704;2023-02-22T08:52:49;96910.16;;;9.05;82.29
56894;BME280;43392;50.078;13.704;2023-02-22T08:55:18;96920.88;;;9.10;82.21
56894;BME280;43392;50.078;13.704;2023-02-22T08:57:45;96914.19;;;9.13;81.73
56894;BME280;43392;50.078;13.704;2023-02-22T09:00:15;96917.13;;;9.16;81.68
56894;BME280;43392;50.078;13.704;2023-02-22T09:02:42;96922.75;;;9.20;81.44
56894;BME280;43392;50.078;13.704;2023-02-22T09:05:09;96917.94;;;9.27;81.16
56894;BME280;43392;50.078;13.704;2023-02-22T09:07:35;96913.66;;;9.31;81.49
56894;BME280;43392;50.078;13.704;2023-02-22T09:10:02;96923.81;;;9.39;81.24
56894;BME280;43392;50.078;13.704;2023-02-22T09:12:28;96921.94;;;9.40;79.52
56894;BME280;43392;50.078;13.704;2023-02-22T09:14:55;96922.72;;;9.40;79.16
56894;BME280;43392;50.078;13.704;2023-02-22T09:17:23;96924.59;;;9.45;79.20
56894;BME280;43392;50.078;13.704;2023-02-22T09:19:50;96921.38;;;9.53;79.10
56894;BME280;43392;50.078;13.704;2023-02-22T09:22:16;96925.94;;;9.57;77.48
56894;BME280;43392;50.078;13.704;2023-02-22T09:24:43;96920.31;;;9.64;78.12
56894;BME280;43392;50.078;13.704;2023-02-22T09:27:09;96919.22;;;9.70;78.06
56894;BME280;43392;50.078;13.704;2023-02-22T09:29:36;96921.09;;;9.79;77.84
56894;BME280;43392;50.078;13.704;2023-02-22T09:32:04;96926.16;;;9.86;77.28
56894;BME280;43392;50.078;13.704;2023-02-22T09:34:32;96922.94;;;9.89;76.40
56894;BME280;43392;50.078;13.704;2023-02-22T09:36:59;96913.56;;;9.91;76.80
56894;BME280;43392;50.078;13.704;2023-02-22T09:39:26;96912.75;;;9.96;76.67
56894;BME280;43392;50.078;13.704;2023-02-22T09:42:02;96921.56;;;10.01;76.09
56894;BME280;43392;50.078;13.704;2023-02-22T09:44:37;96911.91;;;10.06;75.57
56894;BME280;43392;50.078;13.704;2023-02-22T09:47:11;96907.63;;;10.05;75.34
56894;BME280;43392;50.078;13.704;2023-02-22T09:49:43;96909.22;;;10.06;74.66
56894;BME280;43392;50.078;13.704;2023-02-22T09:52:16;96908.19;;;10.01;74.82
56894;BME280;43392;50.078;13.704;2023-02-22T09:54:46;96898.78;;;10.04;74.92
56894;BME280;43392;50.078;13.704;2023-02-22T09:57:20;96899.84;;;10.08;74.99
56894;BME280;43392;50.078;13.704;2023-02-22T09:59:56;96897.69;;;10.15;75.14
56894;BME280;43392;50.078;13.704;2023-02-22T10:02:27;96897.16;;;10.18;74.07
56894;BME280;43392;50.078;13.704;2023-02-22T10:05:00;96894.47;;;10.23;74.96
56894;BME280;43392;50.078;13.704;2023-02-22T10:07:32;96890.16;;;10.22;73.39
56894;BME280;43392;50.078;13.704;2023-02-22T10:10:02;96898.22;;;10.22;74.26
56894;BME280;43392;50.078;13.704;2023-02-22T10:12:39;96885.34;;;10.24;74.23
56894;BME280;43392;50.078;13.704;2023-02-22T10:15:39;96889.06;;;10.33;73.86
56894;BME280;43392;50.078;13.704;2023-02-22T10:18:44;96889.84;;;10.44;74.20
56894;BME280;43392;50.078;13.704;2023-02-22T10:21:26;96878.50;;;10.52;73.61
56894;BME280;43392;50.078;13.704;2023-02-22T10:24:06;96883.03;;;10.56;73.84
56894;BME280;43392;50.078;13.704;2023-02-22T10:26:37;96879.78;;;10.64;73.89
56894;BME280;43392;50.078;13.704;2023-02-22T10:29:11;96874.63;;;10.73;73.42
56894;BME280;43392;50.078;13.704;2023-02-22T10:31:43;96870.28;;;10.82;73.20
56894;BME280;43392;50.078;13.704;2023-02-22T10:34:14;96871.28;;;10.91;71.04
56894;BME280;43392;50.078;13.704;2023-02-22T10:36:45;96871.59;;;10.90;71.15
56894;BME280;43392;50.078;13.704;2023-02-22T10:39:21;96866.97;;;10.95;72.07
56894;BME280;43392;50.078;13.704;2023-02-22T10:41:54;96859.13;;;11.04;71.76
56894;BME280;43392;50.078;13.704;2023-02-22T10:44:21;96865.50;;;11.13;71.57
56894;BME280;43392;50.078;13.704;2023-02-22T10:46:48;96863.56;;;11.18;71.12
56894;BME280;43392;50.078;13.704;2023-02-22T10:49:20;96862.72;;;11.23;70.37
56894;BME280;43392;50.078;13.704;2023-02-22T10:51:58;96864.56;;;11.27;69.78
56894;BME280;43392;50.078;13.704;2023-02-22T10:54:29;96861.59;;;11.29;70.26
56894;BME280;43392;50.078;13.704;2023-02-22T10:56:57;96868.78;;;11.33;69.86
56894;BME280;43392;50.078;13.704;2023-02-22T10:59:27;96859.91;;;11.38;69.76
56894;BME280;43392;50.078;13.704;2023-02-22T11:01:54;96856.38;;;11.43;69.32
56894;BME280;43392;50.078;13.704;2023-02-22T11:04:22;96858.16;;;11.52;69.51
56894;BME280;43392;50.078;13.704;2023-02-22T11:07:08;96854.06;;;11.60;68.48
56894;BME280;43392;50.078;13.704;2023-02-22T11:09:46;96851.84;;;11.67;68.69
56894;BME280;43392;50.078;13.704;2023-02-22T11:12:18;96850.50;;;11.69;68.69
56894;BME280;43392;50.078;13.704;2023-02-22T11:14:45;96856.41;;;11.66;66.26
56894;BME280;43392;50.078;13.704;2023-02-22T11:17:17;96852.69;;;11.62;67.15
56894;BME280;43392;50.078;13.704;2023-02-22T11:19:46;96847.84;;;11.64;68.06
56894;BME280;43392;50.078;13.704;2023-02-22T11:22:20;96845.94;;;11.70;67.80
56894;BME280;43392;50.078;13.704;2023-02-22T11:24:50;96842.59;;;11.78;67.65
56894;BME280;43392;50.078;13.704;2023-02-22T11:27:27;96834.78;;;12.05;79.20
56894;BME280;43392;50.078;13.704;2023-02-22T11:30:06;96835.94;;;12.79;68.39
56894;BME280;43392;50.078;13.704;2023-02-22T11:32:34;96831.88;;;12.81;64.37
56894;BME280;43392;50.078;13.704;2023-02-22T11:35:30;96830.34;;;12.56;64.93
56894;BME280;43392;50.078;13.704;2023-02-22T11:38:15;96834.75;;;12.47;63.52
56894;BME280;43392;50.078;13.704;2023-02-22T11:40:42;96830.69;;;12.31;63.89
56894;BME280;43392;50.078;13.704;2023-02-22T11:43:14;96819.84;;;12.18;64.24
56894;BME280;43392;50.078;13.704;2023-02-22T11:45:56;96819.91;;;12.13;65.74
56894;BME280;43392;50.078;13.704;2023-02-22T11:48:25;96817.78;;;12.10;65.16
56894;BME280;43392;50.078;13.704;2023-02-22T11:50:57;96809.16;;;12.13;65.21
56894;BME280;43392;50.078;13.704;2023-02-22T11:53:39;96815.53;;;12.17;64.71
56894;BME280;43392;50.078;13.704;2023-02-22T11:56:14;96805.28;;;12.19;64.07
56894;BME280;43392;50.078;13.704;2023-02-22T11:58:47;96801.53;;;12.20;65.30
56894;BME280;43392;50.078;13.704;2023-02-22T12:01:22;96804.44;;;12.23;64.77
56894;BME280;43392;50.078;13.704;2023-02-22T12:10:00;96798.97;;;12.10;64.74
56894;BME280;43392;50.078;13.704;2023-02-22T12:12:37;96802.22;;;12.07;64.27
56894;BME280;43392;50.078;13.704;2023-02-22T12:15:10;96797.44;;;12.04;64.85
56894;BME280;43392;50.078;13.704;2023-02-22T12:17:46;96799.53;;;12.07;64.55
56894;BME280;43392;50.078;13.704;2023-02-22T12:20:17;96805.66;;;12.12;63.59
56894;BME280;43392;50.078;13.704;2023-02-22T12:22:57;96804.66;;;12.08;64.35
56894;BME280;43392;50.078;13.704;2023-02-22T12:25:31;96801.34;;;12.11;64.89
56894;BME280;43392;50.078;13.704;2023-02-22T12:28:13;96797.09;;;12.10;63.68
56894;BME280;43392;50.078;13.704;2023-02-22T12:30:43;96791.47;;;12.07;63.79
56894;BME280;43392;50.078;13.704;2023-02-22T12:33:13;96798.34;;;12.18;63.59
56894;BME280;43392;50.078;13.704;2023-02-22T12:35:43;96794.53;;;12.19;63.38
56894;BME280;43392;50.078;13.704;2023-02-22T12:38:18;96789.16;;;12.19;63.24
56894;BME280;43392;50.078;13.704;2023-02-22T12:40:52;96782.22;;;12.18;62.92
56894;BME280;43392;50.078;13.704;2023-02-22T12:43:26;96792.09;;;12.22;63.40
56894;BME280;43392;50.078;13.704;2023-02-22T12:46:01;96782.22;;;12.18;63.12
56894;BME280;43392;50.078;13.704;2023-02-22T12:48:34;96788.16;;;12.15;63.46
56894;BME280;43392;50.078;13.704;2023-02-22T12:51:14;96788.66;;;12.17;62.92
56894;BME280;43392;50.078;13.704;2023-02-22T12:53:48;96782.47;;;12.16;63.05
56894;BME280;43392;50.078;13.704;2023-02-22T12:56:24;96783.78;;;12.19;63.58
56894;BME280;43392;50.078;13.704;2023-02-22T12:58:55;96783.53;;;12.20;63.38
56894;BME280;43392;50.078;13.704;2023-02-22T13:01:31;96770.06;;;12.20;63.06
56894;BME280;43392;50.078;13.704;2023-02-22T13:03:59;96772.47;;;12.22;63.03
56894;BME280;43392;50.078;13.704;2023-02-22T13:06:48;96780.47;;;12.27;63.36
56894;BME280;43392;50.078;13.704;2023-02-22T13:09:41;96770.44;;;12.32;62.63
56894;BME280;43392;50.078;13.704;2023-02-22T13:12:18;96773.94;;;12.33;63.02
56894;BME280;43392;50.078;13.704;2023-02-22T13:14:55;96764.75;;;12.34;63.39
56894;BME280;43392;50.078;13.704;2023-02-22T13:17:29;96766.38;;;12.35;62.40
56894;BME280;43392;50.078;13.704;2023-02-22T13:20:01;96771.16;;;12.38;62.69
56894;BME280;43392;50.078;13.704;2023-02-22T13:22:34;96772.03;;;12.33;62.71
56894;BME280;43392;50.078;13.704;2023-02-22T13:25:08;96763.19;;;12.33;62.86